Time;durP1;ratioP1;P1;durP2;ratioP2;P2;SDS_P1;SDS_P2;PMS_P1;PMS_P2;Temp;Humidity;BMP_temperature;BMP_pressure;BME280_temperature;BME280_humidity;BME280_pressure;Samples;Min_cycle;Max_cycle;Signal;HPM_P1;HPM_P2
2021/10/09 00:01:44;;;;;;;24.83;21.73;;;8.10;99.90;;;;;;5137924;28;20486;-54
2021/10/09 00:04:11;;;;;;;29.27;23.50;;;8.10;99.90;;;;;;5137149;28;20856;-53
2021/10/09 00:06:38;;;;;;;27.20;21.27;;;8.10;99.90;;;;;;5137388;28;20575;-53
2021/10/09 00:09:09;;;;;;;27.27;22.90;;;8.00;99.90;;;;;;5137430;28;20475;-54
2021/10/09 00:11:38;;;;;;;26.63;21.80;;;8.10;99.90;;;;;;5137830;28;20462;-53
2021/10/09 00:14:06;;;;;;;25.90;21.63;;;8.10;99.90;;;;;;5137840;28;20458;-56
2021/10/09 00:16:33;;;;;;;24.47;21.97;;;8.00;99.90;;;;;;5137484;28;20497;-53
2021/10/09 00:19:00;;;;;;;24.60;19.53;;;7.90;99.90;;;;;;5137560;28;20502;-55
2021/10/09 00:21:30;;;;;;;23.97;21.37;;;7.90;99.90;;;;;;5137571;28;20458;-53
2021/10/09 00:24:00;;;;;;;30.93;24.17;;;7.90;99.90;;;;;;5137870;28;20818;-55
2021/10/09 00:26:27;;;;;;;26.00;20.57;;;7.80;99.90;;;;;;5137895;28;20487;-52
2021/10/09 00:28:55;;;;;;;26.20;21.47;;;7.70;99.90;;;;;;5137538;28;20480;-53
2021/10/09 00:31:22;;;;;;;30.10;23.87;;;7.70;99.90;;;;;;5137352;28;20458;-53
2021/10/09 00:33:49;;;;;;;26.50;22.10;;;7.60;99.90;;;;;;5137289;28;20468;-51
2021/10/09 00:36:16;;;;;;;28.33;22.43;;;7.60;99.90;;;;;;5137695;28;20433;-56
2021/10/09 00:38:43;;;;;;;25.07;21.77;;;7.60;99.90;;;;;;5137461;28;20493;-56
2021/10/09 00:41:10;;;;;;;27.27;23.27;;;7.50;99.90;;;;;;5137605;28;20486;-56
2021/10/09 00:43:37;;;;;;;33.47;23.93;;;7.60;99.90;;;;;;5137393;28;20458;-55
2021/10/09 00:46:08;;;;;;;27.40;22.80;;;7.60;99.90;;;;;;5140109;27;20522;-56
2021/10/09 00:48:36;;;;;;;29.03;23.90;;;7.60;99.90;;;;;;5140293;27;20461;-55
2021/10/09 00:51:05;;;;;;;27.10;20.97;;;7.60;99.90;;;;;;5140993;27;20435;-55
2021/10/09 00:53:34;;;;;;;23.60;21.03;;;7.50;99.90;;;;;;5141119;27;20828;-54
2021/10/09 00:56:02;;;;;;;25.60;21.00;;;7.40;99.90;;;;;;5140991;27;20494;-52
2021/10/09 00:58:30;;;;;;;25.67;20.93;;;7.50;99.90;;;;;;5141429;27;20442;-56
2021/10/09 01:00:57;;;;;;;26.00;21.27;;;7.40;99.90;;;;;;5140754;27;20811;-54
2021/10/09 01:03:26;;;;;;;25.23;20.90;;;7.40;99.90;;;;;;5140776;27;20495;-54
2021/10/09 01:05:53;;;;;;;25.50;20.63;;;7.30;99.90;;;;;;5140523;27;20482;-56
2021/10/09 01:08:22;;;;;;;24.77;20.50;;;7.20;99.90;;;;;;5141090;27;20759;-56
2021/10/09 01:10:49;;;;;;;29.20;19.97;;;7.10;99.90;;;;;;5140275;27;20494;-55
2021/10/09 01:13:16;;;;;;;26.43;22.87;;;7.10;99.90;;;;;;5140229;27;20493;-56
2021/10/09 01:15:44;;;;;;;25.20;20.10;;;7.10;99.90;;;;;;5139989;27;20459;-57
2021/10/09 01:18:16;;;;;;;29.30;22.57;;;7.00;99.90;;;;;;5140083;27;20937;-55
2021/10/09 01:20:47;;;;;;;21.87;19.30;;;7.00;99.90;;;;;;5140795;27;20440;-52
2021/10/09 01:23:14;;;;;;;25.03;20.77;;;6.90;99.90;;;;;;5140306;27;20462;-56
2021/10/09 01:25:41;;;;;;;25.50;21.80;;;7.00;99.90;;;;;;5140326;27;20484;-56
2021/10/09 01:28:08;;;;;;;29.13;23.00;;;6.90;99.90;;;;;;5140534;27;20465;-52
2021/10/09 01:30:36;;;;;;;29.20;22.30;;;6.90;99.90;;;;;;5139955;27;20501;-57
2021/10/09 01:33:03;;;;;;;24.40;20.20;;;6.80;99.90;;;;;;5140715;27;20462;-58
2021/10/09 01:35:30;;;;;;;26.20;23.00;;;6.80;99.90;;;;;;5139980;27;20587;-55
2021/10/09 01:37:59;;;;;;;27.07;22.20;;;6.70;99.90;;;;;;5140507;27;20454;-57
2021/10/09 01:40:28;;;;;;;26.23;23.40;;;6.70;99.90;;;;;;5140269;27;20477;-56
2021/10/09 01:42:55;;;;;;;31.13;25.53;;;6.70;99.90;;;;;;5140066;27;20553;-56
2021/10/09 01:45:22;;;;;;;29.77;23.60;;;6.70;99.90;;;;;;5140075;27;20462;-58
2021/10/09 01:47:49;;;;;;;30.27;24.50;;;6.70;99.90;;;;;;5134919;27;20567;-58
2021/10/09 01:50:16;;;;;;;28.93;23.00;;;6.70;99.90;;;;;;5119705;28;20499;-57
2021/10/09 01:52:43;;;;;;;29.50;23.50;;;6.70;99.90;;;;;;5118905;28;20495;-56
2021/10/09 01:55:11;;;;;;;29.00;24.17;;;6.70;99.90;;;;;;5119264;28;20459;-57
2021/10/09 01:57:39;;;;;;;29.50;23.13;;;6.70;99.90;;;;;;5118421;28;20465;-55
2021/10/09 02:00:07;;;;;;;27.87;23.30;;;6.60;99.90;;;;;;5119436;28;20468;-57
2021/10/09 02:02:34;;;;;;;32.90;23.20;;;6.60;99.90;;;;;;5118896;28;20459;-56
2021/10/09 02:05:01;;;;;;;27.87;21.83;;;6.60;99.90;;;;;;5118570;28;20491;-58
2021/10/09 02:07:30;;;;;;;24.97;20.50;;;6.50;99.90;;;;;;5119251;28;20491;-57
2021/10/09 02:09:57;;;;;;;25.03;21.03;;;6.40;99.90;;;;;;5119201;28;20467;-58
2021/10/09 02:12:27;;;;;;;28.60;21.63;;;6.40;99.90;;;;;;5118975;28;20477;-57
2021/10/09 02:15:00;;;;;;;29.90;22.60;;;6.40;99.90;;;;;;5119427;28;20470;-58
2021/10/09 02:25:50;;;;;;;26.60;20.60;;;6.30;99.90;;;;;;5118463;28;20795;-60
2021/10/09 02:28:20;;;;;;;27.87;20.47;;;6.20;99.90;;;;;;5118956;28;20501;-58
2021/10/09 02:30:47;;;;;;;24.93;20.10;;;6.20;99.90;;;;;;5118331;28;20769;-59
2021/10/09 02:33:15;;;;;;;26.77;20.17;;;6.20;99.90;;;;;;5118892;28;20487;-59
2021/10/09 02:35:43;;;;;;;28.50;21.43;;;6.20;99.90;;;;;;5118661;28;20503;-58
2021/10/09 02:38:11;;;;;;;25.03;20.00;;;6.10;99.90;;;;;;5118445;28;20455;-59
2021/10/09 02:40:40;;;;;;;23.30;20.53;;;6.10;99.90;;;;;;5118508;28;20448;-59
2021/10/09 02:43:07;;;;;;;22.60;19.80;;;6.10;99.90;;;;;;5118756;28;20459;-59
2021/10/09 02:45:41;;;;;;;22.83;19.73;;;6.10;99.90;;;;;;5118639;28;20471;-59
2021/10/09 02:48:09;;;;;;;25.80;21.13;;;6.10;99.90;;;;;;5126049;27;20772;-59
2021/10/09 02:50:38;;;;;;;23.40;18.30;;;6.10;99.90;;;;;;5138608;27;20555;-59
2021/10/09 02:53:05;;;;;;;24.37;20.17;;;6.00;99.90;;;;;;5138770;27;20440;-59
2021/10/09 02:55:32;;;;;;;27.33;20.67;;;6.00;99.90;;;;;;5138689;27;20509;-60
2021/10/09 02:57:59;;;;;;;24.13;20.27;;;6.00;99.90;;;;;;5138659;27;20939;-61
2021/10/09 03:00:26;;;;;;;24.83;18.60;;;6.00;99.90;;;;;;5138737;27;20527;-61
2021/10/09 03:02:55;;;;;;;23.50;18.60;;;6.00;99.90;;;;;;5138564;27;20549;-61
2021/10/09 03:05:24;;;;;;;23.00;18.47;;;5.90;99.90;;;;;;5138268;27;20578;-61
2021/10/09 03:07:51;;;;;;;22.27;19.20;;;5.90;99.90;;;;;;5137825;27;20495;-61
2021/10/09 03:10:18;;;;;;;26.10;20.37;;;5.80;99.90;;;;;;5138754;27;20433;-61
2021/10/09 03:12:45;;;;;;;24.57;19.43;;;5.70;99.90;;;;;;5138221;27;20911;-60
2021/10/09 03:15:12;;;;;;;25.10;20.77;;;5.70;99.90;;;;;;5138119;27;20498;-60
2021/10/09 03:17:40;;;;;;;25.50;19.77;;;5.70;99.90;;;;;;5138268;27;20490;-60
2021/10/09 03:20:11;;;;;;;24.03;19.30;;;5.70;99.90;;;;;;5138492;27;20954;-60
2021/10/09 03:22:39;;;;;;;26.60;21.93;;;5.70;99.90;;;;;;5138259;27;20481;-60
2021/10/09 03:25:07;;;;;;;26.80;20.00;;;5.70;99.90;;;;;;5137971;27;20474;-60
2021/10/09 03:27:35;;;;;;;23.87;19.03;;;5.70;99.90;;;;;;5138198;27;20486;-60
2021/10/09 03:30:02;;;;;;;25.07;19.80;;;5.70;99.90;;;;;;5138324;27;20498;-59
2021/10/09 03:32:29;;;;;;;23.57;19.33;;;5.60;99.90;;;;;;5138257;27;20454;-59
2021/10/09 03:34:56;;;;;;;26.00;20.17;;;5.60;99.90;;;;;;5138075;28;20824;-60
2021/10/09 03:37:24;;;;;;;25.67;19.60;;;5.50;99.90;;;;;;5138489;28;21020;-58
2021/10/09 03:39:53;;;;;;;29.17;21.60;;;5.60;99.90;;;;;;5138230;28;20462;-59
2021/10/09 03:42:23;;;;;;;26.63;20.47;;;5.60;99.90;;;;;;5137429;28;20486;-60
2021/10/09 03:44:54;;;;;;;27.73;21.77;;;5.60;99.90;;;;;;5138280;28;20439;-60
2021/10/09 03:47:25;;;;;;;24.10;20.40;;;5.50;99.90;;;;;;5136712;28;20483;-60
2021/10/09 03:49:55;;;;;;;24.33;20.20;;;5.50;99.90;;;;;;5117793;28;20460;-60
2021/10/09 03:52:39;;;;;;;32.03;21.27;;;5.50;99.90;;;;;;5117480;28;20917;-61
2021/10/09 03:55:12;;;;;;;27.27;21.70;;;5.50;99.90;;;;;;5117790;28;20959;-61
2021/10/09 03:57:39;;;;;;;25.73;20.87;;;5.40;99.90;;;;;;5117303;28;20452;-60
2021/10/09 04:00:08;;;;;;;25.67;20.90;;;5.40;99.90;;;;;;5117730;28;20751;-59
2021/10/09 04:02:35;;;;;;;25.23;21.33;;;5.40;99.90;;;;;;5116974;28;20487;-59
2021/10/09 04:05:05;;;;;;;31.60;22.73;;;5.40;99.90;;;;;;5116849;28;20518;-60
2021/10/09 04:07:32;;;;;;;25.50;21.23;;;5.50;99.90;;;;;;5116999;28;20465;-60
2021/10/09 04:09:59;;;;;;;25.33;21.17;;;5.50;99.90;;;;;;5117394;28;20891;-59
2021/10/09 04:12:27;;;;;;;27.63;19.97;;;5.60;99.90;;;;;;5117220;28;20501;-60
2021/10/09 04:14:54;;;;;;;30.73;22.33;;;5.60;99.90;;;;;;5117180;28;20492;-60
2021/10/09 04:17:21;;;;;;;28.53;22.27;;;5.60;99.90;;;;;;5117274;28;20430;-59
2021/10/09 04:19:48;;;;;;;25.37;22.20;;;5.60;99.90;;;;;;5118394;28;20473;-60
2021/10/09 04:22:15;;;;;;;27.40;21.57;;;5.50;99.90;;;;;;5121113;28;20483;-59
2021/10/09 04:24:42;;;;;;;31.40;23.83;;;5.50;99.90;;;;;;5134295;27;20489;-59
2021/10/09 04:27:09;;;;;;;27.53;22.77;;;5.50;99.90;;;;;;5141158;27;20522;-59
2021/10/09 04:29:40;;;;;;;30.30;23.30;;;5.40;99.90;;;;;;5141517;27;20472;-60
2021/10/09 04:32:07;;;;;;;31.30;23.20;;;5.40;99.90;;;;;;5141880;27;20497;-59
2021/10/09 04:34:34;;;;;;;26.90;21.67;;;5.40;99.90;;;;;;5141172;27;20908;-59
2021/10/09 04:37:02;;;;;;;30.70;22.80;;;5.40;99.90;;;;;;5141467;27;20464;-59
2021/10/09 04:39:29;;;;;;;29.90;21.20;;;5.30;99.90;;;;;;5141189;27;20439;-59
2021/10/09 04:41:56;;;;;;;32.53;22.87;;;5.30;99.90;;;;;;5141465;27;20507;-59
2021/10/09 04:44:23;;;;;;;32.37;25.80;;;5.30;99.90;;;;;;5140743;27;20505;-58
2021/10/09 04:46:51;;;;;;;33.83;23.23;;;5.30;99.90;;;;;;5141081;27;20527;-59
2021/10/09 04:49:18;;;;;;;31.10;24.07;;;5.30;99.90;;;;;;5122830;27;20434;-57
2021/10/09 04:51:45;;;;;;;30.10;24.17;;;5.20;99.90;;;;;;5120624;28;20474;-57
2021/10/09 04:54:12;;;;;;;27.83;22.33;;;5.20;99.90;;;;;;5120429;28;20496;-59
2021/10/09 04:56:40;;;;;;;26.80;22.63;;;5.20;99.90;;;;;;5120069;28;20469;-59
2021/10/09 04:59:07;;;;;;;34.13;22.50;;;5.10;99.90;;;;;;5120354;28;20517;-59
2021/10/09 05:01:34;;;;;;;32.00;23.70;;;5.10;99.90;;;;;;5120714;28;20486;-59
2021/10/09 05:04:02;;;;;;;30.80;22.60;;;5.20;99.90;;;;;;5120197;28;20434;-59
2021/10/09 05:06:29;;;;;;;31.37;24.00;;;5.10;99.90;;;;;;5120411;28;20446;-57
2021/10/09 05:08:59;;;;;;;29.87;22.73;;;5.20;99.90;;;;;;5120194;28;20504;-59
2021/10/09 05:11:27;;;;;;;27.23;21.50;;;5.10;99.90;;;;;;5120069;28;20515;-59
2021/10/09 05:13:54;;;;;;;29.93;21.27;;;5.00;99.90;;;;;;5119321;28;20463;-59
2021/10/09 05:16:21;;;;;;;31.90;23.87;;;5.00;99.90;;;;;;5119869;28;20495;-59
2021/10/09 05:18:48;;;;;;;28.07;21.47;;;5.00;99.90;;;;;;5119228;28;20456;-58
2021/10/09 05:21:16;;;;;;;30.40;23.60;;;5.00;99.90;;;;;;5119256;28;20916;-59
2021/10/09 05:23:43;;;;;;;26.83;22.30;;;4.90;99.90;;;;;;5123933;27;20491;-57
2021/10/09 05:26:10;;;;;;;29.10;22.53;;;4.80;99.90;;;;;;5139988;27;20466;-59
2021/10/09 05:28:42;;;;;;;27.90;20.57;;;4.90;99.90;;;;;;5139346;27;20490;-59
2021/10/09 05:31:21;;;;;;;31.00;23.50;;;4.90;99.90;;;;;;5138507;27;20567;-59
2021/10/09 05:33:48;;;;;;;32.93;22.80;;;5.00;99.90;;;;;;5139527;27;20513;-57
2021/10/09 05:36:16;;;;;;;25.40;21.03;;;4.90;99.90;;;;;;5139859;27;20458;-58
2021/10/09 05:38:43;;;;;;;34.73;22.07;;;4.80;99.90;;;;;;5139384;27;20476;-59
2021/10/09 05:41:10;;;;;;;31.53;22.20;;;4.90;99.90;;;;;;5139451;27;20494;-58
2021/10/09 05:43:37;;;;;;;25.50;21.47;;;4.80;99.90;;;;;;5139900;27;20509;-58
2021/10/09 05:46:05;;;;;;;30.10;21.90;;;4.90;99.90;;;;;;5140165;27;20459;-58
2021/10/09 05:48:34;;;;;;;24.97;20.80;;;4.90;99.90;;;;;;5127872;27;20850;-58
2021/10/09 05:51:04;;;;;;;28.27;20.67;;;4.90;99.90;;;;;;5119576;28;20909;-58
2021/10/09 05:53:57;;;;;;;27.17;21.90;;;4.90;99.90;;;;;;5119711;28;20459;-59
2021/10/09 05:56:31;;;;;;;30.60;22.80;;;5.00;99.90;;;;;;5119733;28;20469;-58
2021/10/09 05:59:10;;;;;;;25.17;20.43;;;5.00;99.90;;;;;;5118742;28;20774;-59
2021/10/09 06:32:16;;;;;;;24.40;20.27;;;5.50;99.90;;;;;;5139090;27;20908;-58
2021/10/09 06:59:26;;;;;;;31.80;24.57;;;5.90;99.90;;;;;;5117819;28;20434;-58
2021/10/09 06:59:37;;;;;;;30.50;24.63;;;6.50;99.90;;;;;;5117850;28;20469;-59
2021/10/09 07:02:04;;;;;;;30.43;23.07;;;6.70;99.90;;;;;;5118092;28;20464;-59
2021/10/09 07:04:31;;;;;;;33.57;24.27;;;6.90;99.90;;;;;;5117801;28;20526;-58
2021/10/09 07:07:04;;;;;;;27.63;23.30;;;7.10;99.90;;;;;;5117596;28;20460;-59
2021/10/09 07:09:31;;;;;;;29.73;24.70;;;7.30;99.90;;;;;;5117856;28;20553;-58
2021/10/09 07:12:00;;;;;;;35.07;28.03;;;7.60;99.90;;;;;;5117864;28;20459;-58
2021/10/09 07:14:29;;;;;;;28.37;23.97;;;7.90;99.90;;;;;;5117968;28;21119;-59
2021/10/09 07:17:00;;;;;;;35.00;25.30;;;8.10;99.90;;;;;;5124442;27;20494;-58
2021/10/09 07:19:29;;;;;;;28.50;23.80;;;8.30;99.90;;;;;;5128041;27;20495;-59
2021/10/09 07:21:56;;;;;;;29.23;24.47;;;8.60;99.90;;;;;;5134176;27;20455;-60
2021/10/09 07:24:28;;;;;;;28.93;23.40;;;8.90;99.90;;;;;;5124816;27;20834;-59
2021/10/09 07:26:55;;;;;;;33.17;24.10;;;9.10;99.90;;;;;;5137545;27;20462;-58
2021/10/09 07:29:22;;;;;;;34.00;24.87;;;9.40;99.90;;;;;;5138236;27;20529;-57
2021/10/09 07:31:50;;;;;;;31.20;23.57;;;9.50;99.90;;;;;;5138449;27;20511;-59
2021/10/09 07:34:20;;;;;;;29.30;23.17;;;9.90;99.90;;;;;;5138600;28;20458;-59
2021/10/09 07:36:46;;;;;;;27.73;22.40;;;10.10;99.90;;;;;;5138159;28;20433;-54
2021/10/09 07:39:16;;;;;;;27.30;21.23;;;10.40;99.90;;;;;;5137929;28;20489;-57
2021/10/09 07:41:43;;;;;;;26.10;22.37;;;10.50;99.90;;;;;;5138156;28;20820;-56
2021/10/09 07:44:10;;;;;;;25.03;22.27;;;10.60;99.90;;;;;;5138503;28;20476;-56
2021/10/09 07:46:37;;;;;;;26.43;21.53;;;10.80;99.90;;;;;;5138020;28;20463;-55
2021/10/09 07:49:04;;;;;;;31.43;21.50;;;11.10;99.90;;;;;;5137648;28;20490;-58
2021/10/09 07:51:32;;;;;;;22.93;20.57;;;11.30;99.90;;;;;;5138180;28;20462;-58
2021/10/09 07:54:03;;;;;;;26.37;21.97;;;11.40;99.90;;;;;;5138196;27;20498;-56
2021/10/09 07:56:30;;;;;;;23.30;20.77;;;11.60;99.90;;;;;;5142374;27;20458;-58
2021/10/09 07:59:00;;;;;;;28.13;22.60;;;11.80;99.90;;;;;;5142351;27;20750;-55
2021/10/09 08:01:27;;;;;;;28.07;21.40;;;12.00;99.90;;;;;;5141475;27;20505;-57
2021/10/09 08:03:56;;;;;;;23.33;21.07;;;12.20;84.20;;;;;;5142132;27;20617;-55
2021/10/09 08:06:23;;;;;;;24.73;20.63;;;12.50;95.20;;;;;;5100977;28;20456;-57
2021/10/09 08:08:51;;;;;;;25.60;20.43;;;12.70;1.00;;;;;;5100128;28;20541;-56
2021/10/09 08:11:21;;;;;;;30.63;21.70;;;12.90;1.00;;;;;;5100188;28;20517;-57
2021/10/09 08:14:03;;;;;;;23.10;20.60;;;13.10;1.00;;;;;;5100739;28;20495;-58
2021/10/09 08:16:31;;;;;;;22.87;20.40;;;13.30;1.00;;;;;;5101123;28;20464;-55
2021/10/09 08:19:00;;;;;;;23.53;21.07;;;13.40;1.00;;;;;;5100650;28;20830;-58
2021/10/09 08:21:30;;;;;;;23.90;20.40;;;13.50;1.00;;;;;;5100986;28;20562;-52
2021/10/09 08:24:03;;;;;;;23.67;19.40;;;13.70;1.00;;;;;;5093905;28;20547;-58
2021/10/09 08:40:28;;;;;;;22.30;19.57;;;15.10;1.00;;;;;;5078931;28;20736;-51
2021/10/09 08:42:57;;;;;;;21.53;19.40;;;15.30;1.00;;;;;;5079957;28;20503;-50
2021/10/09 08:45:24;;;;;;;25.77;19.40;;;15.60;1.00;;;;;;5079615;28;20884;-49
2021/10/09 08:47:51;;;;;;;23.77;20.73;;;15.90;1.00;;;;;;5080240;28;20546;-54
2021/10/09 08:50:21;;;;;;;22.30;20.03;;;16.30;1.00;;;;;;5078913;28;20793;-51
2021/10/09 08:53:01;;;;;;;20.43;18.17;;;16.40;1.00;;;;;;5078522;28;20458;-51
2021/10/09 08:55:31;;;;;;;24.60;20.47;;;16.20;1.00;;;;;;5079065;28;20460;-49
2021/10/09 08:58:02;;;;;;;20.87;18.70;;;16.60;1.00;;;;;;5079608;28;20900;-50
2021/10/09 09:00:52;;;;;;;19.30;17.00;;;16.80;1.00;;;;;;5079119;28;20535;-48
2021/10/09 09:03:27;;;;;;;23.90;16.83;;;17.10;1.00;;;;;;5080447;28;20904;-53
2021/10/09 09:06:03;;;;;;;20.73;16.67;;;17.30;1.00;;;;;;5130569;27;20950;-50
2021/10/09 09:26:04;;;;;;;16.70;14.97;;;18.80;99.90;;;;;;5154901;27;20421;-46
2021/10/09 09:31:36;;;;;;;19.10;14.43;;;19.30;1.00;;;;;;5152531;27;20472;-44
2021/10/09 09:34:22;;;;;;;15.73;14.00;;;19.60;99.90;;;;;;5154046;27;20498;-46
2021/10/09 09:37:17;;;;;;;16.80;14.80;;;19.90;99.90;;;;;;5154336;27;20457;-46
2021/10/09 09:39:46;;;;;;;14.70;13.27;;;20.50;99.90;;;;;;5154148;27;20919;-45
2021/10/09 09:42:25;;;;;;;15.90;14.23;;;20.80;99.90;;;;;;5152463;27;20478;-47
2021/10/09 09:45:00;;;;;;;14.47;12.53;;;21.20;99.90;;;;;;5151550;27;20485;-47
2021/10/09 09:47:35;;;;;;;17.43;12.13;;;21.20;99.90;;;;;;5154204;27;20454;-45
2021/10/09 09:50:03;;;;;;;14.90;13.57;;;21.80;99.90;;;;;;5154232;27;20485;-48
2021/10/09 09:52:32;;;;;;;16.60;13.07;;;21.90;99.90;;;;;;5154244;27;20450;-45
2021/10/09 09:55:00;;;;;;;12.67;11.37;;;21.60;99.90;;;;;;5154152;27;20454;-46
2021/10/09 09:57:31;;;;;;;24.13;13.07;;;21.40;99.90;;;;;;5153953;27;20481;-48
2021/10/09 10:00:02;;;;;;;18.20;13.27;;;21.30;99.90;;;;;;5154463;27;20451;-46
2021/10/09 10:02:34;;;;;;;14.27;12.80;;;21.00;99.90;;;;;;5153854;27;20876;-46
2021/10/09 10:05:02;;;;;;;16.13;12.17;;;21.10;99.90;;;;;;5154371;27;20778;-46
2021/10/09 10:07:30;;;;;;;16.90;13.90;;;20.90;99.90;;;;;;5154090;27;20485;-47
2021/10/09 10:10:00;;;;;;;14.70;12.07;;;20.80;99.90;;;;;;5153344;27;20796;-48
2021/10/09 10:12:29;;;;;;;13.80;12.50;;;21.10;99.90;;;;;;5153575;27;20464;-49
2021/10/09 10:14:58;;;;;;;16.60;12.60;;;21.30;99.90;;;;;;5154171;27;20454;-49
2021/10/09 10:17:40;;;;;;;14.50;13.20;;;21.40;99.90;;;;;;5153881;27;20557;-54
2021/10/09 10:20:09;;;;;;;12.80;11.57;;;21.70;99.90;;;;;;5153590;27;20470;-49
2021/10/09 10:23:01;;;;;;;12.67;11.47;;;21.60;99.90;;;;;;5140405;27;20478;-50
2021/10/09 10:25:37;;;;;;;17.50;11.87;;;21.40;99.90;;;;;;5139431;27;20949;-50
2021/10/09 10:28:14;;;;;;;15.03;11.40;;;21.60;99.90;;;;;;5140148;27;20459;-52
2021/10/09 10:30:44;;;;;;;11.97;10.30;;;21.60;99.90;;;;;;5138019;27;20517;-48
2021/10/09 10:33:43;;;;;;;15.03;10.80;;;21.80;99.90;;;;;;5137081;27;20459;-47
2021/10/09 10:36:13;;;;;;;11.10;9.90;;;21.60;99.90;;;;;;5139579;27;20450;-49
2021/10/09 10:38:50;;;;;;;10.27;9.10;;;21.90;99.90;;;;;;5140226;27;20486;-50
2021/10/09 10:41:21;;;;;;;9.80;8.90;;;21.60;99.90;;;;;;5141065;27;20545;-50
2021/10/09 10:43:54;;;;;;;12.37;9.20;;;21.80;99.90;;;;;;5140911;27;20515;-50
2021/10/09 10:46:44;;;;;;;10.00;8.47;;;22.00;99.90;;;;;;5140512;27;20458;-54
2021/10/09 10:49:19;;;;;;;9.93;9.03;;;22.10;99.90;;;;;;5140156;27;20458;-50
2021/10/09 10:52:07;;;;;;;10.10;8.63;;;22.10;99.90;;;;;;5132547;27;20463;-52
2021/10/09 10:54:35;;;;;;;9.90;8.70;;;22.40;99.90;;;;;;5137882;27;20806;-50
2021/10/09 10:57:22;;;;;;;10.63;8.60;;;22.50;99.90;;;;;;5140063;27;20839;-52
2021/10/09 10:59:56;;;;;;;9.80;8.40;;;22.70;99.90;;;;;;5140509;27;20485;-53
2021/10/09 11:02:25;;;;;;;9.57;8.63;;;22.60;99.90;;;;;;5139541;27;20492;-50
2021/10/09 11:04:55;;;;;;;11.30;10.30;;;22.80;99.90;;;;;;5140193;27;20489;-52
2021/10/09 11:07:26;;;;;;;9.87;8.97;;;22.80;99.90;;;;;;5140448;27;20957;-52
2021/10/09 11:09:56;;;;;;;9.80;8.87;;;22.80;99.90;;;;;;5138757;27;20491;-53
2021/10/09 11:12:26;;;;;;;9.37;8.47;;;22.20;99.90;;;;;;5139027;27;20466;-52
2021/10/09 11:15:14;;;;;;;11.07;9.47;;;22.50;99.90;;;;;;5140073;27;20792;-52
2021/10/09 11:17:43;;;;;;;14.33;9.13;;;22.90;99.90;;;;;;5140387;27;20469;-50
2021/10/09 11:20:15;;;;;;;11.27;9.10;;;23.20;99.90;;;;;;5139618;27;20810;-50
2021/10/09 11:22:44;;;;;;;11.83;9.57;;;23.30;99.90;;;;;;5140029;27;20792;-53
2021/10/09 11:25:26;;;;;;;11.30;10.13;;;23.20;99.90;;;;;;5139859;27;20506;-52
2021/10/09 11:27:58;;;;;;;10.80;9.70;;;23.20;99.90;;;;;;5137939;27;20490;-49
2021/10/09 11:30:25;;;;;;;12.60;9.70;;;23.10;99.90;;;;;;5139611;27;20487;-50
2021/10/09 11:32:55;;;;;;;10.37;8.90;;;23.20;99.90;;;;;;5138568;27;20824;-55
2021/10/09 11:35:33;;;;;;;21.23;10.40;;;23.30;99.90;;;;;;5139674;27;20463;-53
2021/10/09 11:38:02;;;;;;;10.10;9.20;;;23.30;99.90;;;;;;5139177;27;20469;-54
2021/10/09 11:40:37;;;;;;;11.73;10.53;;;23.50;99.90;;;;;;5139343;27;20466;-53
2021/10/09 11:43:13;;;;;;;10.20;9.17;;;23.70;99.90;;;;;;5139775;27;20896;-50
2021/10/09 11:46:00;;;;;;;11.17;10.03;;;23.90;99.90;;;;;;5139144;27;20481;-48
2021/10/09 11:54:04;;;;;;;10.93;9.67;;;23.50;99.90;;;;;;5117686;28;20438;-50
2021/10/09 11:56:32;;;;;;;12.83;10.53;;;23.00;99.90;;;;;;5117511;28;20736;-50
2021/10/09 11:58:59;;;;;;;10.70;9.60;;;22.70;99.90;;;;;;5118635;28;20459;-50
2021/10/09 12:01:41;;;;;;;10.53;8.43;;;23.00;99.90;;;;;;5129634;27;20454;-47
2021/10/09 12:04:19;;;;;;;10.20;9.27;;;23.40;99.90;;;;;;5138624;27;20885;-50
2021/10/09 12:06:50;;;;;;;12.53;11.23;;;23.40;99.90;;;;;;5138635;27;20462;-54
2021/10/09 12:09:33;;;;;;;11.37;10.27;;;23.60;99.90;;;;;;5138807;27;20486;-49
2021/10/09 12:12:13;;;;;;;12.00;10.90;;;23.80;99.90;;;;;;5139091;27;20555;-46
2021/10/09 12:14:42;;;;;;;12.53;11.17;;;22.60;99.90;;;;;;5138768;27;20471;-50
2021/10/09 12:17:09;;;;;;;13.00;11.80;;;22.80;99.90;;;;;;5138953;27;20463;-49
2021/10/09 12:19:39;;;;;;;14.77;11.70;;;23.00;99.90;;;;;;5138873;27;20892;-53
2021/10/09 12:22:10;;;;;;;14.40;12.57;;;23.20;99.90;;;;;;5138491;27;20457;-52
2021/10/09 12:24:48;;;;;;;12.90;11.17;;;23.40;99.90;;;;;;5137777;27;20498;-47
2021/10/09 12:27:20;;;;;;;13.90;11.00;;;23.40;99.90;;;;;;5138944;27;20466;-53
2021/10/09 12:30:03;;;;;;;12.17;10.87;;;23.50;99.90;;;;;;5138672;27;20470;-53
2021/10/09 12:32:40;;;;;;;12.97;11.60;;;23.60;99.90;;;;;;5137486;27;20896;-54
2021/10/09 12:35:11;;;;;;;12.50;11.10;;;23.70;99.90;;;;;;5138396;27;20473;-47
2021/10/09 12:37:54;;;;;;;11.90;10.80;;;23.30;99.90;;;;;;5138625;27;20877;-50
2021/10/09 12:40:28;;;;;;;13.00;10.30;;;23.20;99.90;;;;;;5138270;27;20498;-50
2021/10/09 12:42:57;;;;;;;17.43;12.03;;;23.30;99.90;;;;;;5138259;27;20472;-49
2021/10/09 12:45:26;;;;;;;13.53;12.13;;;23.00;99.90;;;;;;5137566;27;20463;-52
2021/10/09 12:47:53;;;;;;;14.77;12.40;;;23.30;99.90;;;;;;5139140;27;20462;-50
2021/10/09 12:50:28;;;;;;;13.00;11.50;;;23.50;99.90;;;;;;5137774;27;20585;-55
2021/10/09 12:52:56;;;;;;;12.73;10.27;;;22.90;99.90;;;;;;5138241;27;20494;-53
2021/10/09 12:55:28;;;;;;;12.07;10.87;;;23.10;99.90;;;;;;5138170;27;20463;-47
2021/10/09 12:57:57;;;;;;;12.17;10.63;;;22.80;99.90;;;;;;5138404;27;20924;-49
2021/10/09 13:00:26;;;;;;;14.00;11.33;;;22.60;99.90;;;;;;5138151;27;20861;-46
2021/10/09 13:02:54;;;;;;;11.40;10.20;;;22.80;99.90;;;;;;5138183;27;20459;-49
2021/10/09 13:05:27;;;;;;;11.63;10.47;;;22.80;99.90;;;;;;5136898;27;20469;-49
2021/10/09 13:07:57;;;;;;;12.60;11.30;;;23.00;99.90;;;;;;5138238;28;20825;-49
2021/10/09 13:10:28;;;;;;;11.63;10.53;;;23.20;99.90;;;;;;5137854;27;20498;-48
2021/10/09 13:13:00;;;;;;;11.37;10.20;;;23.10;99.90;;;;;;5137870;28;20505;-53
2021/10/09 13:15:27;;;;;;;14.57;11.43;;;22.70;99.90;;;;;;5137639;28;20474;-47
2021/10/09 13:17:58;;;;;;;12.33;11.17;;;22.70;99.90;;;;;;5137087;28;20504;-49
2021/10/09 13:20:32;;;;;;;12.40;10.57;;;22.70;99.90;;;;;;5136353;28;20454;-51
2021/10/09 13:23:03;;;;;;;12.60;10.37;;;22.80;99.90;;;;;;5137387;28;20771;-53
2021/10/09 13:25:30;;;;;;;11.17;10.07;;;22.10;99.90;;;;;;5138533;28;20561;-52
2021/10/09 13:27:59;;;;;;;13.73;9.13;;;22.40;99.90;;;;;;5137538;28;20498;-47
2021/10/09 13:30:28;;;;;;;14.23;10.70;;;22.40;99.90;;;;;;5137700;28;20549;-49
2021/10/09 13:32:55;;;;;;;13.87;11.00;;;22.60;99.90;;;;;;5137680;28;20895;-52
2021/10/09 13:35:22;;;;;;;15.53;11.17;;;22.40;99.90;;;;;;5137696;28;20905;-48
2021/10/09 13:37:51;;;;;;;11.33;10.27;;;22.40;99.90;;;;;;5137037;28;20482;-51
2021/10/09 13:40:19;;;;;;;12.10;11.00;;;22.30;99.90;;;;;;5136886;28;20462;-50
2021/10/09 13:42:48;;;;;;;11.77;10.67;;;22.10;99.90;;;;;;5137671;28;20965;-50
2021/10/09 13:45:15;;;;;;;11.10;9.90;;;22.00;99.90;;;;;;5138095;28;20778;-48
2021/10/09 13:47:42;;;;;;;12.40;11.10;;;21.80;99.90;;;;;;5138725;28;20480;-47
2021/10/09 13:50:13;;;;;;;17.20;11.50;;;21.70;99.90;;;;;;5137943;27;20462;-52
2021/10/09 13:52:43;;;;;;;13.67;11.70;;;22.00;99.90;;;;;;5137833;28;20555;-47
2021/10/09 13:55:10;;;;;;;13.37;10.83;;;22.00;99.90;;;;;;5136632;28;20493;-47
2021/10/09 13:57:38;;;;;;;14.70;11.73;;;22.10;99.90;;;;;;5140969;27;20748;-47
2021/10/09 14:00:10;;;;;;;13.13;11.83;;;21.90;99.90;;;;;;5141967;27;20447;-49
2021/10/09 14:02:37;;;;;;;15.87;12.43;;;21.50;99.90;;;;;;5121248;28;20520;-52
2021/10/09 14:05:04;;;;;;;15.23;12.43;;;21.40;99.90;;;;;;5120395;28;20490;-49
2021/10/09 14:07:31;;;;;;;14.23;11.90;;;21.30;99.90;;;;;;5120703;28;20459;-46
2021/10/09 14:09:58;;;;;;;14.13;12.70;;;21.30;99.90;;;;;;5120339;28;20487;-48
2021/10/09 14:12:28;;;;;;;14.97;13.37;;;21.00;99.90;;;;;;5124034;27;20621;-50
2021/10/09 14:14:56;;;;;;;15.17;13.13;;;20.50;99.90;;;;;;5138967;27;20759;-46
2021/10/09 14:17:24;;;;;;;15.00;13.40;;;20.30;99.90;;;;;;5137102;27;20487;-47
2021/10/09 14:19:54;;;;;;;16.33;13.40;;;20.10;99.90;;;;;;5140751;27;20494;-47
2021/10/09 14:22:21;;;;;;;14.70;12.33;;;20.10;99.90;;;;;;5140069;27;20454;-49
2021/10/09 14:24:49;;;;;;;14.23;12.77;;;20.00;99.90;;;;;;5140319;27;20530;-47
2021/10/09 14:27:16;;;;;;;16.30;13.63;;;19.90;99.90;;;;;;5139871;27;20824;-47
2021/10/09 14:29:43;;;;;;;16.97;13.20;;;19.60;99.90;;;;;;5139727;27;20594;-47